sensor_id;sensor_type;location;lat;lon;timestamp;P1;durP1;ratioP1;P2;durP2;ratioP2
26062;SDS011;13837;48.562;12.108;2022-12-07T00:01:24;18.92;;;17.13;;
26062;SDS011;13837;48.562;12.108;2022-12-07T00:03:52;18.55;;;16.77;;
26062;SDS011;13837;48.562;12.108;2022-12-07T00:06:22;18.45;;;16.75;;
26062;SDS011;13837;48.562;12.108;2022-12-07T00:08:48;19.65;;;17.75;;
26062;SDS011;13837;48.562;12.108;2022-12-07T00:11:15;18.48;;;16.75;;
26062;SDS011;13837;48.562;12.108;2022-12-07T00:13:45;20.08;;;18.10;;
26062;SDS011;13837;48.562;12.108;2022-12-07T00:16:16;19.42;;;17.80;;
26062;SDS011;13837;48.562;12.108;2022-12-07T00:18:43;18.30;;;16.63;;
26062;SDS011;13837;48.562;12.108;2022-12-07T00:21:10;17.23;;;15.93;;
26062;SDS011;13837;48.562;12.108;2022-12-07T00:23:36;17.83;;;16.33;;
26062;SDS011;13837;48.562;12.108;2022-12-07T00:26:10;18.67;;;16.90;;
26062;SDS011;13837;48.562;12.108;2022-12-07T00:28:38;17.02;;;15.73;;
26062;SDS011;13837;48.562;12.108;2022-12-07T00:31:05;17.70;;;16.23;;
26062;SDS011;13837;48.562;12.108;2022-12-07T00:33:33;18.35;;;16.83;;
26062;SDS011;13837;48.562;12.108;2022-12-07T00:36:00;18.88;;;17.17;;
26062;SDS011;13837;48.562;12.108;2022-12-07T00:38:27;18.30;;;16.80;;
26062;SDS011;13837;48.562;12.108;2022-12-07T00:40:58;17.88;;;16.27;;
26062;SDS011;13837;48.562;12.108;2022-12-07T00:43:25;19.42;;;17.55;;
26062;SDS011;13837;48.562;12.108;2022-12-07T00:45:52;17.85;;;16.25;;
26062;SDS011;13837;48.562;12.108;2022-12-07T00:48:18;18.05;;;16.55;;
26062;SDS011;13837;48.562;12.108;2022-12-07T00:50:45;18.00;;;16.40;;
26062;SDS011;13837;48.562;12.108;2022-12-07T00:53:10;17.40;;;16.00;;
26062;SDS011;13837;48.562;12.108;2022-12-07T00:55:36;17.55;;;16.05;;
26062;SDS011;13837;48.562;12.108;2022-12-07T00:58:02;18.00;;;16.40;;
26062;SDS011;13837;48.562;12.108;2022-12-07T01:00:28;19.02;;;17.45;;
26062;SDS011;13837;48.562;12.108;2022-12-07T01:02:54;19.27;;;17.77;;
26062;SDS011;13837;48.562;12.108;2022-12-07T01:05:20;19.10;;;17.30;;
26062;SDS011;13837;48.562;12.108;2022-12-07T01:07:46;18.85;;;17.25;;
26062;SDS011;13837;48.562;12.108;2022-12-07T01:10:12;18.00;;;16.45;;
26062;SDS011;13837;48.562;12.108;2022-12-07T01:12:38;18.70;;;16.98;;
26062;SDS011;13837;48.562;12.108;2022-12-07T01:15:04;18.13;;;16.45;;
26062;SDS011;13837;48.562;12.108;2022-12-07T01:17:31;18.10;;;16.60;;
26062;SDS011;13837;48.562;12.108;2022-12-07T01:19:57;17.55;;;15.95;;
26062;SDS011;13837;48.562;12.108;2022-12-07T01:22:22;19.40;;;17.58;;
26062;SDS011;13837;48.562;12.108;2022-12-07T01:24:48;19.52;;;17.73;;
26062;SDS011;13837;48.562;12.108;2022-12-07T01:27:14;20.58;;;18.63;;
26062;SDS011;13837;48.562;12.108;2022-12-07T01:29:40;19.27;;;17.58;;
26062;SDS011;13837;48.562;12.108;2022-12-07T01:32:06;18.45;;;16.73;;
26062;SDS011;13837;48.562;12.108;2022-12-07T01:34:32;19.70;;;17.80;;
26062;SDS011;13837;48.562;12.108;2022-12-07T01:36:57;19.70;;;18.02;;
26062;SDS011;13837;48.562;12.108;2022-12-07T01:39:23;19.40;;;17.42;;
26062;SDS011;13837;48.562;12.108;2022-12-07T01:41:49;20.17;;;18.17;;
26062;SDS011;13837;48.562;12.108;2022-12-07T01:44:25;20.85;;;18.80;;
26062;SDS011;13837;48.562;12.108;2022-12-07T01:54:37;21.05;;;19.00;;
26062;SDS011;13837;48.562;12.108;2022-12-07T01:57:03;19.70;;;17.73;;
26062;SDS011;13837;48.562;12.108;2022-12-07T01:59:31;19.83;;;17.90;;
26062;SDS011;13837;48.562;12.108;2022-12-07T02:01:57;19.33;;;17.60;;
26062;SDS011;13837;48.562;12.108;2022-12-07T02:04:23;20.70;;;18.70;;
26062;SDS011;13837;48.562;12.108;2022-12-07T02:06:49;19.92;;;18.02;;
26062;SDS011;13837;48.562;12.108;2022-12-07T02:09:16;20.20;;;18.15;;
26062;SDS011;13837;48.562;12.108;2022-12-07T02:11:42;19.98;;;17.92;;
26062;SDS011;13837;48.562;12.108;2022-12-07T02:14:08;19.75;;;17.95;;
26062;SDS011;13837;48.562;12.108;2022-12-07T02:22:44;30.95;;;23.27;;
26062;SDS011;13837;48.562;12.108;2022-12-07T02:31:29;21.98;;;19.90;;
26062;SDS011;13837;48.562;12.108;2022-12-07T02:34:05;21.00;;;19.00;;
26062;SDS011;13837;48.562;12.108;2022-12-07T02:36:39;21.25;;;19.25;;
26062;SDS011;13837;48.562;12.108;2022-12-07T02:39:17;21.17;;;19.02;;
26062;SDS011;13837;48.562;12.108;2022-12-07T02:41:51;21.90;;;19.80;;
26062;SDS011;13837;48.562;12.108;2022-12-07T02:44:22;20.23;;;18.42;;
26062;SDS011;13837;48.562;12.108;2022-12-07T02:46:52;20.98;;;18.98;;
26062;SDS011;13837;48.562;12.108;2022-12-07T02:49:22;20.95;;;19.05;;
26062;SDS011;13837;48.562;12.108;2022-12-07T02:51:49;21.23;;;19.13;;
26062;SDS011;13837;48.562;12.108;2022-12-07T02:54:17;20.27;;;18.08;;
26062;SDS011;13837;48.562;12.108;2022-12-07T03:07:05;21.70;;;19.58;;
26062;SDS011;13837;48.562;12.108;2022-12-07T03:09:57;21.25;;;19.15;;
26062;SDS011;13837;48.562;12.108;2022-12-07T03:12:32;20.58;;;18.45;;
26062;SDS011;13837;48.562;12.108;2022-12-07T03:15:13;22.27;;;20.17;;
26062;SDS011;13837;48.562;12.108;2022-12-07T03:17:59;20.98;;;19.02;;
26062;SDS011;13837;48.562;12.108;2022-12-07T03:20:27;20.90;;;18.80;;
26062;SDS011;13837;48.562;12.108;2022-12-07T03:22:56;20.70;;;18.63;;
26062;SDS011;13837;48.562;12.108;2022-12-07T03:25:23;21.83;;;19.75;;
26062;SDS011;13837;48.562;12.108;2022-12-07T03:30:28;21.45;;;19.10;;
26062;SDS011;13837;48.562;12.108;2022-12-07T03:33:08;20.13;;;18.13;;
26062;SDS011;13837;48.562;12.108;2022-12-07T03:35:45;20.33;;;18.30;;
26062;SDS011;13837;48.562;12.108;2022-12-07T03:38:30;19.83;;;17.98;;
26062;SDS011;13837;48.562;12.108;2022-12-07T03:41:05;20.92;;;18.92;;
26062;SDS011;13837;48.562;12.108;2022-12-07T03:43:35;21.27;;;19.17;;
26062;SDS011;13837;48.562;12.108;2022-12-07T03:48:46;20.88;;;18.70;;
26062;SDS011;13837;48.562;12.108;2022-12-07T03:51:28;21.63;;;19.45;;
26062;SDS011;13837;48.562;12.108;2022-12-07T03:54:23;21.50;;;19.42;;
26062;SDS011;13837;48.562;12.108;2022-12-07T03:56:53;21.55;;;19.38;;
26062;SDS011;13837;48.562;12.108;2022-12-07T03:59:21;21.75;;;19.65;;
26062;SDS011;13837;48.562;12.108;2022-12-07T04:01:52;21.42;;;19.42;;
26062;SDS011;13837;48.562;12.108;2022-12-07T04:04:20;22.88;;;20.52;;
26062;SDS011;13837;48.562;12.108;2022-12-07T04:06:46;21.55;;;19.45;;
26062;SDS011;13837;48.562;12.108;2022-12-07T04:09:12;20.58;;;18.63;;
26062;SDS011;13837;48.562;12.108;2022-12-07T04:11:39;21.90;;;19.60;;
26062;SDS011;13837;48.562;12.108;2022-12-07T04:14:05;23.23;;;20.73;;
26062;SDS011;13837;48.562;12.108;2022-12-07T04:16:50;23.33;;;20.13;;
26062;SDS011;13837;48.562;12.108;2022-12-07T04:19:18;22.08;;;19.88;;
26062;SDS011;13837;48.562;12.108;2022-12-07T04:21:45;22.25;;;19.83;;
26062;SDS011;13837;48.562;12.108;2022-12-07T04:24:12;23.58;;;21.02;;
26062;SDS011;13837;48.562;12.108;2022-12-07T04:26:40;23.20;;;20.90;;
26062;SDS011;13837;48.562;12.108;2022-12-07T04:29:06;22.90;;;20.65;;
26062;SDS011;13837;48.562;12.108;2022-12-07T04:31:32;23.77;;;21.38;;
26062;SDS011;13837;48.562;12.108;2022-12-07T04:33:58;23.60;;;21.20;;
26062;SDS011;13837;48.562;12.108;2022-12-07T04:36:24;24.55;;;21.90;;
26062;SDS011;13837;48.562;12.108;2022-12-07T04:38:49;23.63;;;21.15;;
26062;SDS011;13837;48.562;12.108;2022-12-07T04:41:18;24.45;;;22.02;;
26062;SDS011;13837;48.562;12.108;2022-12-07T04:43:43;23.35;;;20.88;;
26062;SDS011;13837;48.562;12.108;2022-12-07T04:46:09;23.85;;;21.35;;
26062;SDS011;13837;48.562;12.108;2022-12-07T04:48:35;23.95;;;21.38;;
26062;SDS011;13837;48.562;12.108;2022-12-07T04:51:02;25.73;;;22.80;;
26062;SDS011;13837;48.562;12.108;2022-12-07T04:53:28;25.13;;;22.45;;
26062;SDS011;13837;48.562;12.108;2022-12-07T04:55:54;25.00;;;21.83;;
26062;SDS011;13837;48.562;12.108;2022-12-07T04:58:19;26.77;;;22.63;;
26062;SDS011;13837;48.562;12.108;2022-12-07T05:00:45;25.45;;;22.15;;
26062;SDS011;13837;48.562;12.108;2022-12-07T05:03:11;25.80;;;22.65;;
26062;SDS011;13837;48.562;12.108;2022-12-07T05:05:39;25.20;;;21.83;;
26062;SDS011;13837;48.562;12.108;2022-12-07T05:08:06;26.48;;;22.10;;
26062;SDS011;13837;48.562;12.108;2022-12-07T05:10:32;25.02;;;22.33;;
26062;SDS011;13837;48.562;12.108;2022-12-07T05:12:57;24.52;;;21.90;;
26062;SDS011;13837;48.562;12.108;2022-12-07T05:15:23;30.52;;;24.73;;
26062;SDS011;13837;48.562;12.108;2022-12-07T05:17:49;26.40;;;23.50;;
26062;SDS011;13837;48.562;12.108;2022-12-07T05:20:14;26.58;;;23.48;;
26062;SDS011;13837;48.562;12.108;2022-12-07T05:22:40;26.13;;;23.20;;
26062;SDS011;13837;48.562;12.108;2022-12-07T05:25:12;28.20;;;24.80;;
26062;SDS011;13837;48.562;12.108;2022-12-07T05:27:37;30.63;;;25.73;;
26062;SDS011;13837;48.562;12.108;2022-12-07T05:30:03;33.75;;;24.73;;
26062;SDS011;13837;48.562;12.108;2022-12-07T05:32:30;28.58;;;24.05;;
26062;SDS011;13837;48.562;12.108;2022-12-07T05:34:56;27.23;;;24.33;;
26062;SDS011;13837;48.562;12.108;2022-12-07T05:37:21;26.90;;;23.67;;
26062;SDS011;13837;48.562;12.108;2022-12-07T05:39:47;27.73;;;23.35;;
26062;SDS011;13837;48.562;12.108;2022-12-07T05:42:13;28.35;;;23.95;;
26062;SDS011;13837;48.562;12.108;2022-12-07T05:44:39;27.98;;;23.15;;
26062;SDS011;13837;48.562;12.108;2022-12-07T05:47:05;27.25;;;24.35;;
26062;SDS011;13837;48.562;12.108;2022-12-07T05:49:31;26.35;;;23.60;;
26062;SDS011;13837;48.562;12.108;2022-12-07T05:51:57;27.27;;;23.40;;
26062;SDS011;13837;48.562;12.108;2022-12-07T05:54:22;31.10;;;23.98;;
26062;SDS011;13837;48.562;12.108;2022-12-07T05:56:48;31.83;;;25.70;;
26062;SDS011;13837;48.562;12.108;2022-12-07T05:59:15;31.95;;;23.67;;
26062;SDS011;13837;48.562;12.108;2022-12-07T06:01:48;28.90;;;24.83;;
26062;SDS011;13837;48.562;12.108;2022-12-07T06:04:17;26.13;;;23.27;;
26062;SDS011;13837;48.562;12.108;2022-12-07T06:06:43;28.60;;;24.05;;
26062;SDS011;13837;48.562;12.108;2022-12-07T06:09:09;29.02;;;24.27;;
26062;SDS011;13837;48.562;12.108;2022-12-07T06:11:35;27.27;;;24.02;;
26062;SDS011;13837;48.562;12.108;2022-12-07T06:14:19;32.10;;;24.48;;
26062;SDS011;13837;48.562;12.108;2022-12-07T06:16:45;27.92;;;23.67;;
26062;SDS011;13837;48.562;12.108;2022-12-07T06:19:11;28.48;;;22.80;;
26062;SDS011;13837;48.562;12.108;2022-12-07T06:21:37;25.20;;;22.50;;
26062;SDS011;13837;48.562;12.108;2022-12-07T06:24:03;27.48;;;24.13;;
26062;SDS011;13837;48.562;12.108;2022-12-07T06:26:29;28.65;;;25.48;;
26062;SDS011;13837;48.562;12.108;2022-12-07T06:28:54;27.80;;;24.80;;
26062;SDS011;13837;48.562;12.108;2022-12-07T06:31:20;28.23;;;25.15;;
26062;SDS011;13837;48.562;12.108;2022-12-07T06:33:46;30.02;;;24.92;;
26062;SDS011;13837;48.562;12.108;2022-12-07T06:36:12;30.23;;;24.45;;
26062;SDS011;13837;48.562;12.108;2022-12-07T06:38:41;30.17;;;25.48;;
26062;SDS011;13837;48.562;12.108;2022-12-07T06:41:06;28.10;;;24.25;;
26062;SDS011;13837;48.562;12.108;2022-12-07T06:43:32;29.30;;;24.67;;
26062;SDS011;13837;48.562;12.108;2022-12-07T06:45:58;27.95;;;24.95;;
26062;SDS011;13837;48.562;12.108;2022-12-07T06:48:23;29.70;;;25.35;;
26062;SDS011;13837;48.562;12.108;2022-12-07T06:50:49;30.55;;;24.88;;
26062;SDS011;13837;48.562;12.108;2022-12-07T06:53:15;29.05;;;26.02;;
26062;SDS011;13837;48.562;12.108;2022-12-07T06:55:41;29.63;;;26.38;;
26062;SDS011;13837;48.562;12.108;2022-12-07T06:58:06;28.65;;;25.48;;
26062;SDS011;13837;48.562;12.108;2022-12-07T07:00:32;29.75;;;26.63;;
26062;SDS011;13837;48.562;12.108;2022-12-07T07:02:59;29.70;;;26.50;;
26062;SDS011;13837;48.562;12.108;2022-12-07T07:05:25;37.08;;;27.70;;
26062;SDS011;13837;48.562;12.108;2022-12-07T07:07:51;32.30;;;27.40;;
26062;SDS011;13837;48.562;12.108;2022-12-07T07:10:17;31.92;;;27.70;;
26062;SDS011;13837;48.562;12.108;2022-12-07T07:12:43;29.13;;;26.13;;
26062;SDS011;13837;48.562;12.108;2022-12-07T07:15:08;30.33;;;26.58;;
26062;SDS011;13837;48.562;12.108;2022-12-07T07:17:36;27.38;;;24.48;;
26062;SDS011;13837;48.562;12.108;2022-12-07T07:20:02;33.55;;;25.25;;
26062;SDS011;13837;48.562;12.108;2022-12-07T07:22:28;33.90;;;27.52;;
26062;SDS011;13837;48.562;12.108;2022-12-07T07:24:54;34.42;;;28.50;;
26062;SDS011;13837;48.562;12.108;2022-12-07T07:27:19;33.90;;;27.48;;
26062;SDS011;13837;48.562;12.108;2022-12-07T07:29:45;35.17;;;28.25;;
26062;SDS011;13837;48.562;12.108;2022-12-07T07:32:11;36.83;;;30.55;;
26062;SDS011;13837;48.562;12.108;2022-12-07T07:34:37;34.40;;;28.70;;
26062;SDS011;13837;48.562;12.108;2022-12-07T07:37:03;34.40;;;28.30;;
26062;SDS011;13837;48.562;12.108;2022-12-07T07:39:28;36.95;;;29.10;;
26062;SDS011;13837;48.562;12.108;2022-12-07T07:41:54;32.47;;;26.95;;
26062;SDS011;13837;48.562;12.108;2022-12-07T07:44:24;30.40;;;24.83;;
26062;SDS011;13837;48.562;12.108;2022-12-07T07:46:50;27.88;;;24.67;;
26062;SDS011;13837;48.562;12.108;2022-12-07T07:49:15;28.65;;;22.95;;
26062;SDS011;13837;48.562;12.108;2022-12-07T07:51:41;30.13;;;23.00;;
26062;SDS011;13837;48.562;12.108;2022-12-07T07:54:07;30.60;;;23.30;;
26062;SDS011;13837;48.562;12.108;2022-12-07T07:56:32;29.23;;;23.58;;
26062;SDS011;13837;48.562;12.108;2022-12-07T07:58:58;30.80;;;23.20;;
26062;SDS011;13837;48.562;12.108;2022-12-07T08:01:24;28.15;;;22.70;;
26062;SDS011;13837;48.562;12.108;2022-12-07T08:03:49;29.17;;;22.83;;
26062;SDS011;13837;48.562;12.108;2022-12-07T08:06:15;31.20;;;22.40;;
26062;SDS011;13837;48.562;12.108;2022-12-07T08:08:41;27.58;;;23.08;;
26062;SDS011;13837;48.562;12.108;2022-12-07T08:11:08;27.52;;;23.77;;
26062;SDS011;13837;48.562;12.108;2022-12-07T08:13:34;30.23;;;24.45;;
26062;SDS011;13837;48.562;12.108;2022-12-07T08:16:04;30.52;;;23.35;;
26062;SDS011;13837;48.562;12.108;2022-12-07T08:18:34;28.65;;;23.05;;
26062;SDS011;13837;48.562;12.108;2022-12-07T08:21:05;29.42;;;23.48;;
26062;SDS011;13837;48.562;12.108;2022-12-07T08:23:32;30.15;;;23.23;;
26062;SDS011;13837;48.562;12.108;2022-12-07T08:26:06;28.73;;;22.83;;
26062;SDS011;13837;48.562;12.108;2022-12-07T08:28:33;29.13;;;22.70;;
26062;SDS011;13837;48.562;12.108;2022-12-07T08:31:02;27.38;;;22.55;;
26062;SDS011;13837;48.562;12.108;2022-12-07T08:33:34;30.70;;;23.83;;
26062;SDS011;13837;48.562;12.108;2022-12-07T08:36:04;28.60;;;23.08;;
26062;SDS011;13837;48.562;12.108;2022-12-07T08:38:31;29.45;;;22.15;;
26062;SDS011;13837;48.562;12.108;2022-12-07T08:40:57;26.70;;;20.90;;
26062;SDS011;13837;48.562;12.108;2022-12-07T08:43:27;27.40;;;21.20;;
26062;SDS011;13837;48.562;12.108;2022-12-07T08:48:41;24.90;;;20.60;;
26062;SDS011;13837;48.562;12.108;2022-12-07T08:51:13;23.48;;;19.83;;
26062;SDS011;13837;48.562;12.108;2022-12-07T08:53:39;25.02;;;21.10;;
26062;SDS011;13837;48.562;12.108;2022-12-07T08:56:06;25.67;;;20.05;;
26062;SDS011;13837;48.562;12.108;2022-12-07T08:58:33;28.42;;;19.95;;
26062;SDS011;13837;48.562;12.108;2022-12-07T09:01:00;26.40;;;18.88;;
26062;SDS011;13837;48.562;12.108;2022-12-07T09:03:26;27.00;;;21.02;;
26062;SDS011;13837;48.562;12.108;2022-12-07T09:05:52;28.65;;;20.23;;
26062;SDS011;13837;48.562;12.108;2022-12-07T09:08:19;26.80;;;20.63;;
26062;SDS011;13837;48.562;12.108;2022-12-07T09:10:48;23.98;;;19.70;;
26062;SDS011;13837;48.562;12.108;2022-12-07T09:13:13;24.50;;;20.58;;
26062;SDS011;13837;48.562;12.108;2022-12-07T09:15:39;29.63;;;21.38;;
26062;SDS011;13837;48.562;12.108;2022-12-07T09:18:05;26.38;;;21.42;;
26062;SDS011;13837;48.562;12.108;2022-12-07T09:20:31;26.30;;;21.33;;
26062;SDS011;13837;48.562;12.108;2022-12-07T09:22:56;25.13;;;20.42;;
26062;SDS011;13837;48.562;12.108;2022-12-07T09:25:22;26.02;;;21.27;;
26062;SDS011;13837;48.562;12.108;2022-12-07T09:27:48;23.92;;;20.40;;
26062;SDS011;13837;48.562;12.108;2022-12-07T09:30:20;26.23;;;20.35;;
26062;SDS011;13837;48.562;12.108;2022-12-07T09:32:46;25.73;;;20.35;;
26062;SDS011;13837;48.562;12.108;2022-12-07T09:35:12;24.63;;;20.70;;
26062;SDS011;13837;48.562;12.108;2022-12-07T09:37:37;24.42;;;20.38;;
26062;SDS011;13837;48.562;12.108;2022-12-07T09:40:03;23.65;;;19.77;;
26062;SDS011;13837;48.562;12.108;2022-12-07T09:42:36;23.55;;;19.50;;
26062;SDS011;13837;48.562;12.108;2022-12-07T09:47:40;21.60;;;18.50;;
26062;SDS011;13837;48.562;12.108;2022-12-07T09:50:16;25.08;;;20.40;;
26062;SDS011;13837;48.562;12.108;2022-12-07T09:52:50;22.88;;;19.80;;
26062;SDS011;13837;48.562;12.108;2022-12-07T09:55:24;27.08;;;21.00;;
26062;SDS011;13837;48.562;12.108;2022-12-07T09:57:53;25.80;;;20.75;;
26062;SDS011;13837;48.562;12.108;2022-12-07T10:00:20;25.15;;;19.20;;
26062;SDS011;13837;48.562;12.108;2022-12-07T10:03:00;21.58;;;18.75;;
26062;SDS011;13837;48.562;12.108;2022-12-07T10:05:37;21.00;;;18.67;;
26062;SDS011;13837;48.562;12.108;2022-12-07T10:08:08;20.42;;;17.70;;
26062;SDS011;13837;48.562;12.108;2022-12-07T10:10:36;20.52;;;18.35;;
26062;SDS011;13837;48.562;12.108;2022-12-07T10:18:16;19.90;;;17.65;;
26062;SDS011;13837;48.562;12.108;2022-12-07T10:23:42;21.92;;;17.98;;
26062;SDS011;13837;48.562;12.108;2022-12-07T10:26:35;21.85;;;19.08;;
26062;SDS011;13837;48.562;12.108;2022-12-07T10:31:54;20.33;;;18.27;;
26062;SDS011;13837;48.562;12.108;2022-12-07T10:34:24;21.88;;;19.55;;
26062;SDS011;13837;48.562;12.108;2022-12-07T10:37:12;25.45;;;19.30;;
26062;SDS011;13837;48.562;12.108;2022-12-07T10:42:26;22.10;;;19.58;;
26062;SDS011;13837;48.562;12.108;2022-12-07T10:58:51;21.67;;;18.75;;
26062;SDS011;13837;48.562;12.108;2022-12-07T11:06:37;19.40;;;17.38;;
26062;SDS011;13837;48.562;12.108;2022-12-07T11:11:55;20.50;;;17.58;;
26062;SDS011;13837;48.562;12.108;2022-12-07T11:14:37;20.63;;;17.70;;
26062;SDS011;13837;48.562;12.108;2022-12-07T11:17:14;18.08;;;16.27;;
26062;SDS011;13837;48.562;12.108;2022-12-07T11:24:56;22.10;;;18.50;;
26062;SDS011;13837;48.562;12.108;2022-12-07T11:27:44;20.38;;;18.20;;
26062;SDS011;13837;48.562;12.108;2022-12-07T11:32:58;21.15;;;17.67;;
26062;SDS011;13837;48.562;12.108;2022-12-07T11:38:20;15.88;;;14.38;;
26062;SDS011;13837;48.562;12.108;2022-12-07T11:40:53;16.83;;;15.25;;
26062;SDS011;13837;48.562;12.108;2022-12-07T11:43:37;16.70;;;15.07;;
26062;SDS011;13837;48.562;12.108;2022-12-07T11:46:12;17.20;;;15.65;;
26062;SDS011;13837;48.562;12.108;2022-12-07T11:48:47;18.75;;;16.63;;
26062;SDS011;13837;48.562;12.108;2022-12-07T11:51:20;26.25;;;17.55;;
26062;SDS011;13837;48.562;12.108;2022-12-07T11:54:03;18.50;;;15.88;;
26062;SDS011;13837;48.562;12.108;2022-12-07T11:56:37;19.05;;;15.68;;
26062;SDS011;13837;48.562;12.108;2022-12-07T12:01:48;19.83;;;16.70;;
26062;SDS011;13837;48.562;12.108;2022-12-07T12:06:53;33.67;;;18.67;;
26062;SDS011;13837;48.562;12.108;2022-12-07T12:17:49;17.13;;;15.52;;
26062;SDS011;13837;48.562;12.108;2022-12-07T12:20:41;15.80;;;14.30;;
26062;SDS011;13837;48.562;12.108;2022-12-07T12:26:05;15.82;;;14.32;;
26062;SDS011;13837;48.562;12.108;2022-12-07T12:33:52;16.88;;;14.90;;
26062;SDS011;13837;48.562;12.108;2022-12-07T12:36:21;15.63;;;14.02;;
26062;SDS011;13837;48.562;12.108;2022-12-07T12:39:09;16.13;;;14.45;;
26062;SDS011;13837;48.562;12.108;2022-12-07T12:49:24;16.80;;;15.25;;
26062;SDS011;13837;48.562;12.108;2022-12-07T12:57:27;16.08;;;14.40;;
26062;SDS011;13837;48.562;12.108;2022-12-07T12:59:59;16.13;;;14.48;;
26062;SDS011;13837;48.562;12.108;2022-12-07T13:02:38;15.75;;;14.02;;
26062;SDS011;13837;48.562;12.108;2022-12-07T13:15:37;16.40;;;14.80;;
26062;SDS011;13837;48.562;12.108;2022-12-07T13:18:25;18.38;;;15.73;;
26062;SDS011;13837;48.562;12.108;2022-12-07T13:23:35;17.48;;;15.77;;
26062;SDS011;13837;48.562;12.108;2022-12-07T13:28:40;15.30;;;13.68;;
26062;SDS011;13837;48.562;12.108;2022-12-07T13:31:25;17.02;;;15.23;;
26062;SDS011;13837;48.562;12.108;2022-12-07T13:34:00;16.13;;;14.45;;
26062;SDS011;13837;48.562;12.108;2022-12-07T13:36:27;21.13;;;14.27;;
26062;SDS011;13837;48.562;12.108;2022-12-07T13:39:09;15.05;;;13.60;;
26062;SDS011;13837;48.562;12.108;2022-12-07T13:41:41;15.18;;;13.57;;
26062;SDS011;13837;48.562;12.108;2022-12-07T13:44:11;16.35;;;14.68;;
26062;SDS011;13837;48.562;12.108;2022-12-07T13:46:44;17.52;;;15.25;;
26062;SDS011;13837;48.562;12.108;2022-12-07T13:49:47;18.33;;;14.82;;
26062;SDS011;13837;48.562;12.108;2022-12-07T13:52:23;19.15;;;16.73;;
26062;SDS011;13837;48.562;12.108;2022-12-07T13:57:23;17.95;;;15.48;;
26062;SDS011;13837;48.562;12.108;2022-12-07T13:59:51;20.60;;;16.15;;
26062;SDS011;13837;48.562;12.108;2022-12-07T14:02:25;18.02;;;14.95;;
26062;SDS011;13837;48.562;12.108;2022-12-07T14:05:07;19.02;;;15.13;;
26062;SDS011;13837;48.562;12.108;2022-12-07T14:07:56;17.63;;;15.55;;
26062;SDS011;13837;48.562;12.108;2022-12-07T14:10:31;17.70;;;15.80;;
26062;SDS011;13837;48.562;12.108;2022-12-07T14:13:00;18.63;;;15.75;;
26062;SDS011;13837;48.562;12.108;2022-12-07T14:15:31;16.58;;;14.88;;
26062;SDS011;13837;48.562;12.108;2022-12-07T14:18:00;19.45;;;15.85;;
26062;SDS011;13837;48.562;12.108;2022-12-07T14:20:37;17.33;;;15.52;;
26062;SDS011;13837;48.562;12.108;2022-12-07T14:23:05;16.38;;;14.77;;
26062;SDS011;13837;48.562;12.108;2022-12-07T14:25:49;18.58;;;15.15;;
26062;SDS011;13837;48.562;12.108;2022-12-07T14:33:22;15.07;;;13.63;;
26062;SDS011;13837;48.562;12.108;2022-12-07T14:35:49;16.42;;;14.68;;
26062;SDS011;13837;48.562;12.108;2022-12-07T14:38:20;15.48;;;13.27;;
26062;SDS011;13837;48.562;12.108;2022-12-07T14:43:16;17.80;;;15.90;;
26062;SDS011;13837;48.562;12.108;2022-12-07T14:45:43;17.42;;;15.63;;
26062;SDS011;13837;48.562;12.108;2022-12-07T14:48:13;16.80;;;15.15;;
26062;SDS011;13837;48.562;12.108;2022-12-07T14:50:49;16.70;;;15.18;;
26062;SDS011;13837;48.562;12.108;2022-12-07T14:53:18;16.25;;;14.55;;
26062;SDS011;13837;48.562;12.108;2022-12-07T14:55:54;15.73;;;14.25;;
26062;SDS011;13837;48.562;12.108;2022-12-07T14:58:20;16.08;;;14.38;;
26062;SDS011;13837;48.562;12.108;2022-12-07T15:00:46;16.58;;;15.07;;
26062;SDS011;13837;48.562;12.108;2022-12-07T15:03:14;17.00;;;15.35;;
26062;SDS011;13837;48.562;12.108;2022-12-07T15:05:40;23.13;;;17.45;;
26062;SDS011;13837;48.562;12.108;2022-12-07T15:08:08;31.58;;;21.55;;
26062;SDS011;13837;48.562;12.108;2022-12-07T15:10:36;24.95;;;18.10;;
26062;SDS011;13837;48.562;12.108;2022-12-07T15:13:06;18.52;;;16.67;;
26062;SDS011;13837;48.562;12.108;2022-12-07T15:15:52;20.23;;;18.13;;
26062;SDS011;13837;48.562;12.108;2022-12-07T15:18:19;24.67;;;18.40;;
26062;SDS011;13837;48.562;12.108;2022-12-07T15:20:45;18.88;;;16.98;;
26062;SDS011;13837;48.562;12.108;2022-12-07T15:23:11;18.63;;;16.73;;
26062;SDS011;13837;48.562;12.108;2022-12-07T15:25:44;19.23;;;16.45;;
26062;SDS011;13837;48.562;12.108;2022-12-07T15:28:12;22.02;;;18.63;;
26062;SDS011;13837;48.562;12.108;2022-12-07T15:30:39;27.70;;;21.85;;
26062;SDS011;13837;48.562;12.108;2022-12-07T15:33:07;25.02;;;21.90;;
26062;SDS011;13837;48.562;12.108;2022-12-07T15:35:33;41.72;;;32.47;;
26062;SDS011;13837;48.562;12.108;2022-12-07T15:38:03;28.38;;;23.73;;
26062;SDS011;13837;48.562;12.108;2022-12-07T15:40:29;36.58;;;28.33;;
26062;SDS011;13837;48.562;12.108;2022-12-07T15:42:54;31.67;;;27.58;;
26062;SDS011;13837;48.562;12.108;2022-12-07T15:45:20;53.67;;;37.30;;
26062;SDS011;13837;48.562;12.108;2022-12-07T15:47:46;55.63;;;36.63;;
26062;SDS011;13837;48.562;12.108;2022-12-07T15:50:13;27.35;;;21.55;;
26062;SDS011;13837;48.562;12.108;2022-12-07T15:52:41;25.02;;;21.65;;
26062;SDS011;13837;48.562;12.108;2022-12-07T15:55:07;24.42;;;20.17;;
26062;SDS011;13837;48.562;12.108;2022-12-07T15:57:35;22.05;;;19.58;;
26062;SDS011;13837;48.562;12.108;2022-12-07T16:00:03;26.48;;;21.17;;
26062;SDS011;13837;48.562;12.108;2022-12-07T16:02:30;26.48;;;22.05;;
26062;SDS011;13837;48.562;12.108;2022-12-07T16:04:56;22.42;;;18.88;;
26062;SDS011;13837;48.562;12.108;2022-12-07T16:07:22;21.73;;;19.48;;
26062;SDS011;13837;48.562;12.108;2022-12-07T16:09:48;22.48;;;19.23;;
26062;SDS011;13837;48.562;12.108;2022-12-07T16:12:14;20.35;;;18.35;;
26062;SDS011;13837;48.562;12.108;2022-12-07T16:14:40;21.02;;;18.83;;
26062;SDS011;13837;48.562;12.108;2022-12-07T16:17:07;19.17;;;17.30;;
26062;SDS011;13837;48.562;12.108;2022-12-07T16:19:34;20.30;;;18.25;;
26062;SDS011;13837;48.562;12.108;2022-12-07T16:22:00;23.17;;;18.98;;
26062;SDS011;13837;48.562;12.108;2022-12-07T16:24:27;24.55;;;20.63;;
26062;SDS011;13837;48.562;12.108;2022-12-07T16:26:53;28.33;;;22.80;;
26062;SDS011;13837;48.562;12.108;2022-12-07T16:29:20;23.70;;;21.13;;
26062;SDS011;13837;48.562;12.108;2022-12-07T16:31:46;29.42;;;20.77;;
26062;SDS011;13837;48.562;12.108;2022-12-07T16:34:13;25.30;;;19.58;;
26062;SDS011;13837;48.562;12.108;2022-12-07T16:36:38;25.08;;;20.10;;
26062;SDS011;13837;48.562;12.108;2022-12-07T16:39:04;26.67;;;21.23;;
26062;SDS011;13837;48.562;12.108;2022-12-07T16:41:30;22.90;;;20.35;;
26062;SDS011;13837;48.562;12.108;2022-12-07T16:43:56;24.58;;;20.27;;
26062;SDS011;13837;48.562;12.108;2022-12-07T16:46:26;32.70;;;23.20;;
26062;SDS011;13837;48.562;12.108;2022-12-07T16:48:52;28.80;;;21.67;;